createdAt,value
2023-01-21T00:02:04.419Z,5.18
2023-01-21T00:04:34.347Z,4.93
2023-01-21T00:07:02.554Z,4.53
2023-01-21T00:09:28.840Z,6.53
2023-01-21T00:11:55.213Z,4.63
2023-01-21T00:14:21.582Z,5.35
2023-01-21T00:16:47.886Z,5.57
2023-01-21T00:19:14.254Z,5.13
2023-01-21T00:21:40.538Z,4.75
2023-01-21T00:24:06.927Z,5.07
2023-01-21T00:26:33.404Z,8.02
2023-01-21T00:28:59.693Z,5.93
2023-01-21T00:31:26.511Z,5.00
2023-01-21T00:33:52.895Z,6.07
2023-01-21T00:36:19.474Z,6.20
2023-01-21T00:38:48.865Z,7.25
2023-01-21T00:41:15.244Z,7.13
2023-01-21T00:43:42.107Z,7.95
2023-01-21T00:46:08.921Z,6.15
2023-01-21T00:48:35.380Z,7.18
2023-01-21T00:51:02.007Z,6.43
2023-01-21T00:53:29.336Z,5.32
2023-01-21T00:55:59.136Z,5.47
2023-01-21T00:58:25.568Z,5.18
2023-01-21T01:01:00.103Z,5.95
2023-01-21T01:03:26.424Z,5.32
2023-01-21T01:05:52.720Z,6.22
2023-01-21T01:08:19.005Z,4.85
2023-01-21T01:10:45.377Z,6.05
2023-01-21T01:13:11.703Z,5.70
2023-01-21T01:15:38.162Z,5.90
2023-01-21T01:18:04.534Z,6.93
2023-01-21T01:20:30.916Z,6.78
2023-01-21T01:22:57.305Z,6.35
2023-01-21T01:25:23.588Z,7.72
2023-01-21T01:27:49.921Z,6.43
2023-01-21T01:30:16.691Z,8.07
2023-01-21T01:32:43.398Z,9.93
2023-01-21T01:35:09.685Z,6.40
2023-01-21T01:37:36.001Z,6.55
2023-01-21T01:40:02.367Z,8.63
2023-01-21T01:42:28.736Z,6.50
2023-01-21T01:44:57.102Z,7.95
2023-01-21T01:47:25.762Z,6.57
2023-01-21T01:49:52.378Z,8.02
2023-01-21T01:52:19.593Z,7.63
2023-01-21T01:54:48.547Z,10.40
2023-01-21T01:57:16.485Z,8.05
2023-01-21T01:59:43.330Z,10.95
2023-01-21T02:02:12.488Z,8.13
2023-01-21T02:04:42.430Z,6.53
2023-01-21T02:07:09.077Z,7.45
2023-01-21T02:09:35.391Z,5.80
2023-01-21T02:12:03.002Z,6.13
2023-01-21T02:14:30.121Z,5.90
2023-01-21T02:17:15.025Z,4.60
2023-01-21T02:20:07.011Z,3.67
2023-01-21T02:22:33.383Z,5.32
2023-01-21T02:25:17.878Z,3.33
2023-01-21T02:28:03.235Z,4.18
2023-01-21T02:30:47.128Z,4.75
2023-01-21T02:33:16.690Z,4.60
2023-01-21T02:35:45.498Z,3.95
2023-01-21T02:38:14.655Z,3.92
2023-01-21T02:40:48.809Z,4.22
2023-01-21T02:43:21.719Z,3.35
2023-01-21T02:46:05.997Z,4.05
2023-01-21T02:48:34.822Z,4.60
2023-01-21T02:51:02.180Z,4.28
2023-01-21T02:53:32.535Z,3.47
2023-01-21T02:56:01.281Z,3.67
2023-01-21T02:58:28.937Z,3.08
2023-01-21T03:00:55.349Z,3.53
2023-01-21T03:03:34.878Z,3.58
2023-01-21T03:06:01.232Z,3.72
2023-01-21T03:08:30.639Z,5.13
2023-01-21T03:11:04.015Z,3.55
2023-01-21T03:13:48.953Z,4.95
2023-01-21T03:16:38.166Z,3.97
2023-01-21T03:19:05.777Z,3.60
2023-01-21T03:21:32.722Z,4.82
2023-01-21T03:23:59.835Z,4.45
2023-01-21T03:26:29.465Z,5.60
2023-01-21T03:28:58.204Z,3.92
2023-01-21T03:31:28.142Z,2.90
2023-01-21T03:33:56.464Z,2.85
2023-01-21T03:36:45.977Z,3.13
2023-01-21T03:39:18.602Z,4.25
2023-01-21T03:41:45.049Z,3.80
2023-01-21T03:44:11.410Z,3.38
2023-01-21T03:46:40.828Z,2.90
2023-01-21T03:49:11.370Z,3.47
2023-01-21T03:51:39.498Z,3.13
2023-01-21T03:54:05.911Z,2.60
2023-01-21T03:56:32.237Z,1.90
2023-01-21T03:58:58.675Z,1.70
2023-01-21T04:01:25.068Z,2.08
2023-01-21T04:03:51.369Z,1.75
2023-01-21T04:06:21.652Z,1.40
2023-01-21T04:08:48.051Z,1.27
2023-01-21T04:11:14.838Z,1.70
2023-01-21T04:13:41.369Z,2.10
2023-01-21T04:16:07.890Z,2.40
2023-01-21T04:18:34.520Z,3.05
2023-01-21T04:21:01.034Z,3.60
2023-01-21T04:23:27.518Z,3.90
2023-01-21T04:25:53.875Z,3.47
2023-01-21T04:28:20.200Z,3.22
2023-01-21T04:30:47.180Z,2.38
2023-01-21T04:33:13.909Z,2.35
2023-01-21T04:35:40.264Z,3.30
2023-01-21T04:38:06.748Z,3.15
2023-01-21T04:40:33.104Z,2.88
2023-01-21T04:42:59.437Z,2.45
2023-01-21T04:45:25.724Z,3.90
2023-01-21T04:47:52.396Z,4.05
2023-01-21T04:50:19.179Z,3.65
2023-01-21T04:52:45.530Z,3.22
2023-01-21T04:55:12.285Z,4.03
2023-01-21T04:57:38.594Z,4.30
2023-01-21T05:00:05.710Z,4.47
2023-01-21T05:02:32.489Z,3.45
2023-01-21T05:04:58.802Z,3.33
2023-01-21T05:07:25.366Z,4.38
2023-01-21T05:09:51.689Z,3.13
2023-01-21T05:12:18.145Z,2.78
2023-01-21T05:14:44.568Z,2.42
2023-01-21T05:17:10.982Z,1.98
2023-01-21T05:19:37.385Z,2.10
2023-01-21T05:22:03.760Z,2.97
2023-01-21T05:24:30.481Z,3.03
2023-01-21T05:26:56.854Z,2.95
2023-01-21T05:29:23.246Z,5.50
2023-01-21T05:31:49.666Z,4.30
2023-01-21T05:34:16.086Z,3.47
2023-01-21T05:36:42.394Z,2.88
2023-01-21T05:39:08.731Z,2.25
2023-01-21T05:41:35.100Z,1.90
2023-01-21T05:44:01.429Z,2.00
2023-01-21T05:46:27.897Z,1.90
2023-01-21T05:48:54.586Z,1.75
2023-01-21T05:51:20.952Z,1.50
2023-01-21T05:53:47.398Z,1.27
2023-01-21T05:56:13.789Z,1.20
2023-01-21T05:58:40.261Z,1.25
2023-01-21T06:01:06.679Z,0.93
2023-01-21T06:03:33.046Z,1.00
2023-01-21T06:05:59.735Z,0.85
2023-01-21T06:08:26.198Z,1.20
2023-01-21T06:10:56.346Z,1.10
2023-01-21T06:13:22.980Z,0.80
2023-01-21T06:15:49.766Z,0.75
2023-01-21T06:18:16.216Z,0.80
2023-01-21T06:20:42.600Z,0.80
2023-01-21T06:23:09.057Z,0.90
2023-01-21T06:25:35.486Z,1.60
2023-01-21T06:28:01.901Z,1.10
2023-01-21T06:30:28.330Z,1.33
2023-01-21T06:32:54.641Z,1.27
2023-01-21T06:35:21.212Z,1.25
2023-01-21T06:37:47.516Z,0.98
2023-01-21T06:40:14.784Z,1.00
2023-01-21T06:42:41.330Z,1.10
2023-01-21T06:45:07.915Z,1.15
2023-01-21T06:47:34.241Z,1.48
2023-01-21T06:50:00.587Z,1.10
2023-01-21T06:52:26.983Z,0.90
2023-01-21T06:54:53.330Z,1.20
2023-01-21T06:57:19.638Z,1.10
2023-01-21T06:59:45.971Z,0.80
2023-01-21T07:02:12.835Z,1.23
2023-01-21T07:04:39.164Z,1.02
2023-01-21T07:07:05.494Z,1.63
2023-01-21T07:09:31.804Z,1.27
2023-01-21T07:11:58.608Z,1.27
2023-01-21T07:14:25.056Z,1.63
2023-01-21T07:16:51.419Z,1.00
2023-01-21T07:19:17.888Z,1.20
2023-01-21T07:21:44.233Z,0.77
2023-01-21T07:24:10.630Z,1.00
2023-01-21T07:26:38.183Z,1.33
2023-01-21T07:29:06.132Z,1.80
2023-01-21T07:31:32.927Z,1.60
2023-01-21T07:33:59.507Z,1.48
2023-01-21T07:36:26.821Z,1.45
2023-01-21T07:38:53.424Z,2.08
2023-01-21T07:41:19.771Z,2.30
2023-01-21T07:43:49.778Z,2.08
2023-01-21T07:46:17.027Z,2.60
2023-01-21T07:48:43.386Z,2.40
2023-01-21T07:51:11.404Z,3.10
2023-01-21T07:53:37.740Z,1.90
2023-01-21T07:56:04.910Z,2.22
2023-01-21T07:58:31.265Z,2.60
2023-01-21T08:00:57.610Z,2.80
2023-01-21T08:03:25.240Z,2.30
2023-01-21T08:05:52.188Z,2.20
2023-01-21T08:08:19.137Z,4.63
2023-01-21T08:10:50.436Z,2.47
2023-01-21T08:13:16.785Z,2.33
2023-01-21T08:15:43.129Z,3.10
2023-01-21T08:18:09.407Z,2.80
2023-01-21T08:20:35.753Z,2.97
2023-01-21T08:23:02.181Z,3.10
2023-01-21T08:25:28.511Z,3.45
2023-01-21T08:27:54.819Z,4.15
2023-01-21T08:30:21.285Z,4.00
2023-01-21T08:32:47.658Z,3.50
2023-01-21T08:35:14.070Z,2.40
2023-01-21T08:37:40.428Z,2.80
2023-01-21T08:40:07.177Z,2.25
2023-01-21T08:42:33.557Z,2.30
2023-01-21T08:44:59.848Z,2.72
2023-01-21T08:47:26.194Z,2.67
2023-01-21T08:49:52.556Z,2.00
2023-01-21T08:52:20.670Z,3.08
2023-01-21T08:54:49.704Z,3.35
2023-01-21T08:57:16.958Z,2.10
2023-01-21T08:59:43.273Z,2.75
2023-01-21T09:02:11.083Z,2.38
2023-01-21T09:04:37.504Z,2.35
2023-01-21T09:07:03.869Z,1.58
2023-01-21T09:09:30.257Z,1.40
2023-01-21T09:11:56.581Z,1.08
2023-01-21T09:14:22.923Z,1.00
2023-01-21T09:16:49.531Z,1.02
2023-01-21T09:19:16.134Z,1.00
2023-01-21T09:21:42.435Z,1.10
2023-01-21T09:24:08.893Z,1.40
2023-01-21T09:26:35.532Z,1.58
2023-01-21T09:29:02.117Z,1.55
2023-01-21T09:31:29.838Z,1.52
2023-01-21T09:34:00.393Z,1.63
2023-01-21T09:36:28.416Z,1.40
2023-01-21T09:38:54.750Z,1.13
2023-01-21T09:41:23.540Z,0.90
2023-01-21T09:43:53.908Z,1.08
2023-01-21T09:46:27.221Z,1.20
2023-01-21T09:48:54.990Z,0.80
2023-01-21T09:51:25.794Z,1.35
2023-01-21T09:53:53.906Z,0.90
2023-01-21T09:56:28.073Z,1.23
2023-01-21T09:59:04.126Z,1.52
2023-01-21T10:01:34.352Z,0.93
2023-01-21T10:04:19.784Z,1.10
2023-01-21T10:06:54.884Z,1.80
2023-01-21T10:09:42.754Z,1.30
2023-01-21T10:12:20.114Z,1.20
2023-01-21T10:14:56.626Z,1.00
2023-01-21T10:17:41.537Z,1.08
2023-01-21T10:20:07.987Z,1.90
2023-01-21T10:22:34.755Z,1.67
2023-01-21T10:25:03.100Z,2.47
2023-01-21T10:27:32.187Z,2.42
2023-01-21T10:30:02.687Z,2.38
2023-01-21T10:32:29.098Z,3.30
2023-01-21T10:34:56.454Z,3.03
2023-01-21T10:37:30.607Z,3.05
2023-01-21T10:40:01.941Z,3.72
2023-01-21T10:42:28.444Z,2.50
2023-01-21T10:45:08.150Z,2.60
2023-01-21T10:47:34.477Z,4.28
2023-01-21T10:50:04.231Z,3.13
2023-01-21T10:52:42.320Z,3.75
2023-01-21T10:55:20.096Z,3.30
2023-01-21T10:58:03.752Z,3.53
2023-01-21T11:00:36.182Z,3.13
2023-01-21T11:03:06.571Z,2.65
2023-01-21T11:05:32.999Z,3.00
2023-01-21T11:07:59.497Z,4.13
2023-01-21T11:10:26.862Z,2.60
2023-01-21T11:12:53.983Z,2.85
2023-01-21T11:15:21.440Z,3.63
2023-01-21T11:17:49.087Z,2.95
2023-01-21T11:20:34.210Z,3.78
2023-01-21T11:23:03.811Z,3.00
2023-01-21T11:25:41.509Z,3.47
2023-01-21T11:28:24.899Z,3.20
2023-01-21T11:31:02.247Z,3.17
2023-01-21T11:33:28.879Z,3.80
2023-01-21T11:35:55.628Z,4.05
2023-01-21T11:38:34.832Z,4.80
2023-01-21T11:41:13.404Z,4.00
2023-01-21T11:43:51.255Z,4.20
2023-01-21T11:46:26.767Z,4.18
2023-01-21T11:48:57.921Z,3.75
2023-01-21T11:51:24.305Z,4.60
2023-01-21T11:54:06.383Z,4.35
2023-01-21T11:56:32.754Z,3.45
2023-01-21T11:58:59.106Z,3.20
2023-01-21T12:01:25.488Z,3.67
2023-01-21T12:03:53.716Z,3.75
2023-01-21T12:06:21.432Z,3.35
2023-01-21T12:08:52.183Z,4.25
2023-01-21T12:11:19.809Z,3.20
2023-01-21T12:14:04.734Z,3.38
2023-01-21T12:16:32.708Z,3.42
2023-01-21T12:19:16.592Z,3.42
2023-01-21T12:22:01.831Z,2.78
2023-01-21T12:24:37.354Z,3.25
2023-01-21T12:27:15.690Z,3.25
2023-01-21T12:29:41.966Z,2.75
2023-01-21T12:32:19.156Z,3.22
2023-01-21T12:34:48.029Z,3.40
2023-01-21T12:37:26.768Z,2.80
2023-01-21T12:39:54.234Z,2.92
2023-01-21T12:42:29.353Z,3.45
2023-01-21T12:45:07.787Z,4.10
2023-01-21T12:47:42.247Z,3.60
2023-01-21T12:50:19.049Z,5.47
2023-01-21T12:52:48.524Z,4.15
2023-01-21T12:55:30.322Z,4.63
2023-01-21T12:57:59.083Z,3.65
2023-01-21T13:00:27.121Z,3.72
2023-01-21T13:02:56.797Z,3.08
2023-01-21T13:05:29.648Z,3.80
2023-01-21T13:08:16.251Z,3.15
2023-01-21T13:10:46.713Z,3.40
2023-01-21T13:13:18.877Z,3.00
2023-01-21T13:15:47.975Z,3.60
2023-01-21T13:18:16.699Z,2.33
2023-01-21T13:20:46.050Z,3.42
2023-01-21T13:23:21.697Z,2.80
2023-01-21T13:25:51.094Z,3.08
2023-01-21T13:28:39.506Z,3.30
2023-01-21T13:31:14.849Z,2.72
2023-01-21T13:33:47.503Z,3.53
2023-01-21T13:36:32.409Z,5.32
2023-01-21T13:39:11.308Z,4.88
2023-01-21T13:41:53.833Z,4.47
2023-01-21T13:44:55.740Z,4.43
2023-01-21T13:47:40.394Z,3.40
2023-01-21T13:50:18.940Z,2.88
2023-01-21T13:52:51.403Z,3.08
2023-01-21T13:55:20.602Z,3.75
2023-01-21T13:57:53.758Z,3.03
2023-01-21T14:00:23.003Z,2.97
2023-01-21T14:02:52.726Z,3.22
2023-01-21T14:05:28.948Z,2.70
2023-01-21T14:08:01.413Z,3.28
2023-01-21T14:10:33.495Z,3.08
2023-01-21T14:15:32.672Z,2.42
2023-01-21T14:18:06.616Z,2.47
2023-01-21T14:20:51.426Z,2.50
2023-01-21T14:23:36.709Z,2.40
2023-01-21T14:26:18.326Z,3.50
2023-01-21T14:28:55.651Z,3.22
2023-01-21T14:31:24.630Z,2.95
2023-01-21T14:33:57.471Z,3.15
2023-01-21T14:36:28.045Z,3.08
2023-01-21T14:39:00.570Z,3.05
2023-01-21T14:41:46.845Z,2.92
2023-01-21T14:44:33.105Z,3.35
2023-01-21T14:47:11.786Z,2.05
2023-01-21T14:49:39.627Z,2.00
2023-01-21T14:52:05.993Z,1.98
2023-01-21T14:54:32.348Z,2.10
2023-01-21T14:57:18.242Z,1.73
2023-01-21T14:59:46.311Z,1.90
2023-01-21T15:02:25.884Z,1.40
2023-01-21T15:04:54.372Z,1.00
2023-01-21T15:07:23.390Z,1.58
2023-01-21T15:09:54.548Z,1.58
2023-01-21T15:12:22.563Z,1.35
2023-01-21T15:14:49.338Z,1.45
2023-01-21T15:17:34.735Z,1.00
2023-01-21T15:20:20.969Z,1.23
2023-01-21T15:23:02.921Z,0.98
2023-01-21T15:25:31.536Z,1.15
2023-01-21T15:28:16.625Z,1.58
2023-01-21T15:30:58.695Z,1.55
2023-01-21T15:33:25.507Z,1.50
2023-01-21T15:35:52.856Z,1.60
2023-01-21T15:38:20.425Z,1.90
2023-01-21T15:40:54.384Z,2.40
2023-01-21T15:43:33.008Z,1.80
2023-01-21T15:46:17.915Z,1.65
2023-01-21T15:48:50.221Z,1.45
2023-01-21T15:51:25.485Z,1.50
2023-01-21T15:54:10.679Z,1.35
2023-01-21T15:56:42.885Z,1.85
2023-01-21T15:59:15.377Z,1.40
2023-01-21T16:01:42.848Z,1.45
2023-01-21T16:04:18.484Z,1.30
2023-01-21T16:06:56.893Z,1.42
2023-01-21T16:09:26.307Z,1.30
2023-01-21T16:11:55.355Z,1.30
2023-01-21T16:14:21.665Z,1.30
2023-01-21T16:17:00.029Z,1.08
2023-01-21T16:19:31.656Z,1.23
2023-01-21T16:22:01.103Z,1.15
2023-01-21T16:24:28.855Z,1.10
2023-01-21T16:26:55.786Z,0.90
2023-01-21T16:29:22.092Z,1.10
2023-01-21T16:31:48.670Z,0.90
2023-01-21T16:34:23.057Z,0.90
2023-01-21T16:36:49.733Z,0.82
2023-01-21T16:39:19.011Z,1.02
2023-01-21T16:41:59.074Z,1.05
2023-01-21T16:44:25.972Z,1.10
2023-01-21T16:46:53.092Z,0.80
2023-01-21T16:49:20.245Z,1.55
2023-01-21T16:52:05.175Z,1.58
2023-01-21T16:54:32.736Z,1.20
2023-01-21T16:57:00.287Z,1.25
2023-01-21T16:59:40.003Z,1.20
2023-01-21T17:02:16.553Z,1.02
2023-01-21T17:04:42.921Z,1.42
2023-01-21T17:07:24.122Z,1.45
2023-01-21T17:09:55.382Z,1.77
2023-01-21T17:12:25.974Z,1.50
2023-01-21T17:14:56.903Z,2.25
2023-01-21T17:17:23.825Z,1.13
2023-01-21T17:19:50.895Z,1.88
2023-01-21T17:22:21.550Z,1.80
2023-01-21T17:24:58.558Z,2.13
2023-01-21T17:27:26.306Z,2.53
2023-01-21T17:29:52.858Z,2.97
2023-01-21T17:32:39.523Z,2.83
2023-01-21T17:35:06.002Z,3.10
2023-01-21T17:37:51.127Z,3.28
2023-01-21T17:40:23.715Z,3.53
2023-01-21T17:42:50.168Z,3.30
2023-01-21T17:45:19.177Z,3.97
2023-01-21T17:48:07.566Z,4.15
2023-01-21T17:50:35.308Z,3.58
2023-01-21T17:53:07.109Z,4.57
2023-01-21T17:55:40.238Z,4.68
2023-01-21T17:58:25.238Z,4.55
2023-01-21T18:00:51.764Z,4.55
2023-01-21T18:03:18.109Z,5.68
2023-01-21T18:05:44.409Z,5.43
2023-01-21T18:08:14.323Z,5.45
2023-01-21T18:10:40.811Z,5.43
2023-01-21T18:13:10.475Z,4.95
2023-01-21T18:15:36.788Z,4.72
2023-01-21T18:18:03.209Z,5.30
2023-01-21T18:20:30.102Z,4.20
2023-01-21T18:22:57.660Z,5.28
2023-01-21T18:25:25.656Z,4.75
2023-01-21T18:27:54.827Z,4.78
2023-01-21T18:30:22.883Z,5.30
2023-01-21T18:32:49.782Z,5.68
2023-01-21T18:35:17.832Z,5.18
2023-01-21T18:37:44.737Z,5.20
2023-01-21T18:40:17.590Z,4.70
2023-01-21T18:42:47.473Z,5.07
2023-01-21T18:45:14.980Z,5.03
2023-01-21T18:47:41.626Z,4.93
2023-01-21T18:50:21.342Z,6.05
2023-01-21T18:52:48.182Z,5.32
2023-01-21T18:55:15.810Z,5.13
2023-01-21T18:57:43.881Z,6.15
2023-01-21T19:00:30.762Z,5.38
2023-01-21T19:02:58.219Z,6.60
2023-01-21T19:05:26.032Z,6.20
2023-01-21T19:07:52.525Z,5.72
2023-01-21T19:10:20.139Z,5.60
2023-01-21T19:12:47.083Z,5.13
2023-01-21T19:15:18.514Z,5.88
2023-01-21T19:17:44.974Z,5.72
2023-01-21T19:20:29.593Z,5.35
2023-01-21T19:22:56.311Z,6.32
2023-01-21T19:25:25.156Z,5.18
2023-01-21T19:27:53.095Z,6.47
2023-01-21T19:30:25.398Z,5.30
2023-01-21T19:32:52.960Z,6.47
2023-01-21T19:35:20.769Z,4.30
2023-01-21T19:37:50.537Z,4.90
2023-01-21T19:40:18.721Z,5.25
2023-01-21T19:42:45.535Z,4.97
2023-01-21T19:45:12.085Z,5.43
2023-01-21T19:47:41.323Z,5.13
2023-01-21T19:50:11.156Z,5.57
2023-01-21T19:52:38.303Z,5.03
2023-01-21T19:55:05.598Z,4.93
2023-01-21T19:57:32.065Z,4.85
2023-01-21T19:59:59.702Z,5.57
2023-01-21T20:02:26.087Z,5.03
2023-01-21T20:04:52.381Z,4.95
2023-01-21T20:07:19.062Z,5.57
2023-01-21T20:09:45.678Z,6.32
2023-01-21T20:12:12.835Z,5.88
2023-01-21T20:14:39.134Z,6.28
2023-01-21T20:17:05.629Z,4.90
2023-01-21T20:19:32.075Z,5.13
2023-01-21T20:22:02.385Z,5.70
2023-01-21T20:24:30.626Z,5.93
2023-01-21T20:26:57.532Z,4.85
2023-01-21T20:29:23.862Z,5.32
2023-01-21T20:31:51.991Z,5.78
2023-01-21T20:34:18.421Z,5.75
2023-01-21T20:36:48.325Z,5.50
2023-01-21T20:39:14.926Z,4.95
2023-01-21T20:41:43.266Z,5.55
2023-01-21T20:44:09.713Z,6.32
2023-01-21T20:46:36.131Z,5.15
2023-01-21T20:49:02.585Z,6.32
2023-01-21T20:51:29.123Z,6.25
2023-01-21T20:53:55.540Z,7.10
2023-01-21T20:56:24.805Z,5.70
2023-01-21T20:58:51.440Z,6.43
2023-01-21T21:01:19.144Z,6.88
2023-01-21T21:03:45.702Z,5.60
2023-01-21T21:06:19.906Z,6.03
2023-01-21T21:08:46.854Z,5.93
2023-01-21T21:11:14.292Z,6.53
2023-01-21T21:13:40.813Z,7.07
2023-01-21T21:16:16.703Z,7.05
2023-01-21T21:18:43.121Z,6.25
2023-01-21T21:21:11.157Z,4.95
2023-01-21T21:23:37.858Z,6.82
2023-01-21T21:26:04.225Z,5.30
2023-01-21T21:28:30.521Z,5.93
2023-01-21T21:30:56.906Z,5.30
2023-01-21T21:33:23.317Z,5.55
2023-01-21T21:35:49.803Z,5.47
2023-01-21T21:38:17.796Z,6.22
2023-01-21T21:40:47.566Z,7.60
2023-01-21T21:43:32.514Z,6.32
2023-01-21T21:46:22.514Z,6.30
2023-01-21T21:48:48.964Z,6.97
2023-01-21T21:51:17.651Z,5.60
2023-01-21T21:53:44.525Z,6.57
2023-01-21T21:56:14.965Z,6.80
2023-01-21T21:58:41.347Z,5.70
2023-01-21T22:01:08.941Z,6.00
2023-01-21T22:03:35.344Z,6.05
2023-01-21T22:06:03.909Z,5.82
2023-01-21T22:08:32.547Z,7.28
2023-01-21T22:11:00.620Z,5.32
2023-01-21T22:13:27.772Z,5.68
2023-01-21T22:15:55.350Z,6.25
2023-01-21T22:18:21.849Z,4.90
2023-01-21T22:20:48.191Z,6.55
2023-01-21T22:23:14.546Z,6.15
2023-01-21T22:25:40.978Z,8.02
2023-01-21T22:28:07.284Z,6.22
2023-01-21T22:30:33.720Z,7.57
2023-01-21T22:33:00.113Z,5.57
2023-01-21T22:35:26.464Z,6.57
2023-01-21T22:37:52.853Z,6.00
2023-01-21T22:40:19.289Z,6.32
2023-01-21T22:42:45.593Z,6.18
2023-01-21T22:45:12.243Z,6.10
2023-01-21T22:47:38.569Z,7.20
2023-01-21T22:50:05.139Z,6.20
2023-01-21T22:52:31.472Z,6.65
2023-01-21T22:54:57.842Z,5.63
2023-01-21T22:57:24.170Z,6.28
2023-01-21T22:59:50.469Z,6.25
2023-01-21T23:02:18.347Z,5.93
2023-01-21T23:04:45.722Z,6.95
2023-01-21T23:07:12.065Z,6.07
2023-01-21T23:09:38.483Z,5.75
2023-01-21T23:12:05.160Z,6.30
2023-01-21T23:14:31.490Z,7.28
2023-01-21T23:16:57.995Z,6.78
2023-01-21T23:19:24.415Z,6.50
2023-01-21T23:21:50.829Z,6.25
2023-01-21T23:24:17.153Z,7.50
2023-01-21T23:26:43.444Z,5.95
2023-01-21T23:29:09.837Z,5.68
2023-01-21T23:31:36.356Z,5.82
2023-01-21T23:34:03.473Z,6.68
2023-01-21T23:36:29.863Z,7.10
2023-01-21T23:38:56.194Z,6.70
2023-01-21T23:41:22.678Z,8.05
2023-01-21T23:43:49.034Z,6.75
2023-01-21T23:46:16.624Z,6.90
2023-01-21T23:48:43.170Z,7.50
2023-01-21T23:51:11.096Z,6.68
2023-01-21T23:53:37.554Z,7.90
2023-01-21T23:56:14.557Z,7.70
2023-01-21T23:58:41.072Z,6.25
